Knob Noster, Missouri
Current Conditions -  °F | °C
As of 3:33 AM on Friday 24 Oct 2014 (Local Time) from KSZL Reporting Station
Overcast Overcast  
Wind Chill: 59°   Ceiling: 400
Heat Index: 59°   Visibility: 9mi
Dew Point: 57°   Wind: 9mph
Humidity: 94%   Direction: 250°WSW
Pressure: 30.09"   Gusts: NA
Location:  38.77°N, 93.56°W
Report Text: KSZL 240833Z 25008KT 9SM OVC004 15/14 A3009 RMK AO2A
Loading
Personal Weather Stations






























Interactive Weather Map
Tropical Storm Tracking
New forecast layout! Learn more

10-Day Weather Forecast

Advertisements
Track Severe Weather on mobile